• Guest, pentru o varianta fara reclame a forumului oferim conturi premium. Mai multe detalii aici.

Corpuri ceresti

Zsolt

King Nothing
Staff member
fly-ra 2017
Cu scuzele de rigoare, va prezint Luna:


Saturn (mai am de invatat la stacking) si trebuie sa vona o camera dedicata pentru asta:


Jupiter cu fratiorii (closca si puii - asa de paste):
 

Thomas

Well-Known Member
Premium Member
fly-ra 2017
Vin si eu cu o productie care nu este a mea personala :-D.

Nu este nici foarte deosebita calitativ, e facuta cu o camera relativ "normala" dar este mai deosebita totusi ... :)

Facuta de fiul meu, care a avut norocul sa se afle în Mexic în aceste zile:

 

Zsolt

King Nothing
Staff member
fly-ra 2017
Conditii de eclipsa. Mor de ciuda, sta telescopul degeaba pe terasa :(

EDDK 200850Z 27003KT 2400 BR OVC008 06/03 Q1026 NOSIG
TAF EDDK 200500Z 2006/2112 VRB03KT 3500 BR OVC010
TEMPO 2006/2009 2000 BR BKN007
PROB30
TEMPO 2006/2009 0500 FG OVC001
BECMG 2009/2012 8000 SCT015
BECMG 2012/2015 32006KT
BECMG 2017/2020 VRB03KT
BECMG 2102/2104 BKN008
BECMG 2105/2108 30007KT
TEMPO 2106/2110 4000 RA
PROB40
TEMPO 2110/2112 SHRA BKN010TCU


Live:
 

Zsolt

King Nothing
Staff member
fly-ra 2017
Ce flacoane iti dau. Eu nu vad bine blocul care e la 300m de mine.
 

Zsolt

King Nothing
Staff member
fly-ra 2017
Yes, a aparut blocul ;) Soarele e pe undeva prin coltul stanga/sus.
 

OOVNI

Well-Known Member
fly-ra 2017
E relativa chestia cu METAR-ul... am vazut eclipsa fara probleme vreo 20min cu asta: EBBR 200850Z 09005KT 2100 BR SCT012 BKN013 06/03 Q1026 NOSIG


 

Zsolt

King Nothing
Staff member
fly-ra 2017
Alt norocos. La mine tot Overcast este.
Un prieten de la FRA imi face`n ciuda cu poze, Witze, de la Nord de mine, a vazut si el ceva. Eu ... damn. Better luck next time.
 

alex

Well-Known Member
Premium Member
Si eu ma numar printre cei norocosi!
Am vazut eclipsa, dar nu din CRA! Norocul meu ca am fost plecat pentru ca azi , la CRA, s-a anulat zborul din cauza cetei prelungite :)

Sunt obligat sa retractez. Nu din cauza cetei s-a anulat zborul ci din cauza grevei din Italia. Am vazut un reportaj la stirile TVR1!!( unde erau filmati oameni nemultumiti pe aeoportul Craiova)
Mea culpa!
 
Last edited by a moderator:
D

Deleted member 13561

Guest
Da, fain. Aseară s-a văzut super bine Jupiter.


Sent from my mobile phone using Tapatalk
 
Top